createdAt,value
2019-03-20T00:00:04.440Z,993.9
2019-03-20T00:01:07.823Z,993.9
2019-03-20T00:02:09.732Z,993.9
2019-03-20T00:03:10.972Z,993.9
2019-03-20T00:04:12.229Z,993.9
2019-03-20T00:05:13.832Z,993.8
2019-03-20T00:06:18.908Z,993.9
2019-03-20T00:07:20.173Z,994
2019-03-20T00:08:21.495Z,993.9
2019-03-20T00:09:22.770Z,993.9
2019-03-20T00:10:24.036Z,993.9
2019-03-20T00:11:25.352Z,993.9
2019-03-20T00:12:26.636Z,993.9
2019-03-20T00:13:27.894Z,993.9
2019-03-20T00:14:29.172Z,994
2019-03-20T00:15:31.612Z,993.9
2019-03-20T00:16:32.900Z,993.9
2019-03-20T00:17:34.168Z,994
2019-03-20T00:18:35.435Z,994
2019-03-20T00:19:36.689Z,994
2019-03-20T00:20:38.305Z,993.9
2019-03-20T00:21:39.632Z,993.9
2019-03-20T00:22:44.073Z,994
2019-03-20T00:23:45.369Z,994
2019-03-20T00:24:46.946Z,993.9
2019-03-20T00:25:48.202Z,994
2019-03-20T00:26:49.731Z,994
2019-03-20T00:27:52.563Z,994
2019-03-20T00:28:53.810Z,994
2019-03-20T00:29:55.065Z,994
2019-03-20T00:30:56.330Z,994.1
2019-03-20T00:31:57.625Z,994
2019-03-20T00:32:58.887Z,994
2019-03-20T00:34:00.161Z,994
2019-03-20T00:35:02.188Z,993.9
2019-03-20T00:36:03.533Z,994
2019-03-20T00:37:04.810Z,993.9
2019-03-20T00:38:06.065Z,994
2019-03-20T00:39:07.443Z,994
2019-03-20T00:40:08.688Z,993.9
2019-03-20T00:41:09.928Z,994
2019-03-20T00:42:11.247Z,993.8
2019-03-20T00:43:12.524Z,993.5
2019-03-20T00:44:13.783Z,994.1
2019-03-20T00:45:15.045Z,994.1
2019-03-20T00:46:16.321Z,994
2019-03-20T00:47:17.618Z,994.1
2019-03-20T00:48:18.898Z,994.1
2019-03-20T00:49:20.151Z,993.9
2019-03-20T00:50:21.433Z,994
2019-03-20T00:51:22.699Z,994.1
2019-03-20T00:52:24.003Z,994
2019-03-20T00:53:25.245Z,994
2019-03-20T00:54:26.521Z,994.1
2019-03-20T00:55:27.867Z,993.9
2019-03-20T00:56:29.121Z,993.9
2019-03-20T00:57:30.433Z,993.9
2019-03-20T00:58:34.167Z,993.9
2019-03-20T00:59:35.421Z,993.9
2019-03-20T01:00:36.679Z,993.9
2019-03-20T01:01:37.925Z,993.9
2019-03-20T01:02:39.267Z,993.9
2019-03-20T01:03:40.539Z,993.7
2019-03-20T01:04:41.832Z,994
2019-03-20T01:05:43.087Z,993.9
2019-03-20T01:06:44.325Z,994
2019-03-20T01:07:45.624Z,994
2019-03-20T01:08:46.862Z,994
2019-03-20T01:09:48.108Z,994
2019-03-20T01:10:49.405Z,993.9
2019-03-20T01:11:50.667Z,993.7
2019-03-20T01:12:51.984Z,993.9
2019-03-20T01:13:53.497Z,993.8
2019-03-20T01:14:55.011Z,993.8
2019-03-20T01:15:56.278Z,993.8
2019-03-20T01:16:57.527Z,993.7
2019-03-20T01:17:58.808Z,993.8
2019-03-20T01:19:00.086Z,993.8
2019-03-20T01:20:01.630Z,993.9
2019-03-20T01:21:02.891Z,993.8
2019-03-20T01:22:06.601Z,993.8
2019-03-20T01:23:07.885Z,994
2019-03-20T01:24:09.177Z,993.9
2019-03-20T01:25:10.413Z,993.9
2019-03-20T01:26:12.130Z,993.6
2019-03-20T01:27:13.400Z,993.9
2019-03-20T01:28:14.718Z,993.9
2019-03-20T01:29:16.001Z,993.9
2019-03-20T01:30:17.248Z,994
2019-03-20T01:31:18.558Z,993.9
2019-03-20T01:32:19.873Z,993.3
2019-03-20T01:33:21.165Z,993.9
2019-03-20T01:34:22.719Z,993.9
2019-03-20T01:35:24.923Z,993.9
2019-03-20T01:36:27.274Z,993.9
2019-03-20T01:37:28.527Z,994
2019-03-20T01:38:29.837Z,994
2019-03-20T01:39:31.271Z,994
2019-03-20T01:40:32.515Z,993.9
2019-03-20T01:41:38.931Z,994
2019-03-20T01:42:40.183Z,993.9
2019-03-20T01:43:41.516Z,993.8
2019-03-20T01:44:42.764Z,993.9
2019-03-20T01:45:44.016Z,993.9
2019-03-20T01:46:45.280Z,994
2019-03-20T01:47:46.543Z,993.9
2019-03-20T01:48:47.843Z,993.9
2019-03-20T01:49:49.133Z,994
2019-03-20T01:50:51.215Z,993.9
2019-03-20T01:51:52.481Z,994
2019-03-20T01:52:53.744Z,994
2019-03-20T01:53:55.080Z,993.9
2019-03-20T01:54:56.334Z,994
2019-03-20T01:55:57.574Z,994
2019-03-20T01:56:58.829Z,993.9
2019-03-20T01:58:00.209Z,994
2019-03-20T01:59:02.618Z,994
2019-03-20T02:00:06.276Z,994
2019-03-20T02:01:11.686Z,994
2019-03-20T02:02:12.968Z,994
2019-03-20T02:03:15.454Z,994
2019-03-20T02:04:16.735Z,994
2019-03-20T02:05:17.967Z,994
2019-03-20T02:06:19.204Z,994
2019-03-20T02:07:20.778Z,993.9
2019-03-20T02:08:22.352Z,994
2019-03-20T02:09:23.636Z,994.1
2019-03-20T02:10:24.894Z,994.1
2019-03-20T02:11:26.145Z,994
2019-03-20T02:12:27.405Z,993.6
2019-03-20T02:13:28.643Z,994.1
2019-03-20T02:14:30.311Z,994
2019-03-20T02:15:39.791Z,994.1
2019-03-20T02:16:41.260Z,994.1
2019-03-20T02:17:42.527Z,994
2019-03-20T02:18:43.777Z,994
2019-03-20T02:19:45.064Z,994
2019-03-20T02:20:46.320Z,994
2019-03-20T02:21:47.583Z,994.1
2019-03-20T02:22:48.840Z,994.1
2019-03-20T02:23:52.271Z,994.1
2019-03-20T02:24:53.565Z,994.1
2019-03-20T02:25:54.821Z,994.1
2019-03-20T02:26:56.087Z,994
2019-03-20T02:27:57.392Z,994
2019-03-20T02:28:58.647Z,994
2019-03-20T02:30:00.477Z,994.1
2019-03-20T02:31:01.929Z,994
2019-03-20T02:32:03.286Z,994.1
2019-03-20T02:33:04.566Z,994.1
2019-03-20T02:34:05.837Z,994.1
2019-03-20T02:35:07.166Z,994.2
2019-03-20T02:36:08.462Z,994
2019-03-20T02:37:09.750Z,993.9
2019-03-20T02:38:11.317Z,994.1
2019-03-20T02:39:12.579Z,994
2019-03-20T02:40:13.891Z,994.1
2019-03-20T02:41:15.179Z,994.1
2019-03-20T02:42:16.447Z,994.1
2019-03-20T02:43:17.689Z,994.1
2019-03-20T02:44:20.028Z,994.1
2019-03-20T02:45:21.393Z,994
2019-03-20T02:46:22.661Z,994.1
2019-03-20T02:47:23.909Z,994.1
2019-03-20T02:48:25.157Z,994
2019-03-20T02:49:26.413Z,994.1
2019-03-20T02:50:27.700Z,993.9
2019-03-20T02:51:28.964Z,994.1
2019-03-20T02:52:30.230Z,994.1
2019-03-20T02:53:31.500Z,994.1
2019-03-20T02:54:32.751Z,994.1
2019-03-20T02:55:34.056Z,994.1
2019-03-20T02:56:35.316Z,994.1
2019-03-20T02:57:36.554Z,994.1
2019-03-20T02:58:37.793Z,994.1
2019-03-20T02:59:39.059Z,994.1
2019-03-20T03:00:40.651Z,994.1
2019-03-20T03:01:43.196Z,994.1
2019-03-20T03:02:44.450Z,994.1
2019-03-20T03:03:45.737Z,994.1
2019-03-20T03:04:46.988Z,994.1
2019-03-20T03:05:48.291Z,994.1
2019-03-20T03:06:49.613Z,994.2
2019-03-20T03:07:50.895Z,994.2
2019-03-20T03:08:54.550Z,994.2
2019-03-20T03:09:55.831Z,994.2
2019-03-20T03:10:57.141Z,994.2
2019-03-20T03:11:59.517Z,994.2
2019-03-20T03:13:00.780Z,994.2
2019-03-20T03:14:03.038Z,994.1
2019-03-20T03:15:04.318Z,994.1
2019-03-20T03:16:05.734Z,994.1
2019-03-20T03:17:07.026Z,994.1
2019-03-20T03:18:08.270Z,994
2019-03-20T03:19:09.554Z,994
2019-03-20T03:20:10.835Z,994.1
2019-03-20T03:21:13.332Z,994.1
2019-03-20T03:22:17.167Z,994.1
2019-03-20T03:23:18.444Z,994.1
2019-03-20T03:24:19.716Z,994.1
2019-03-20T03:25:20.970Z,994.1
2019-03-20T03:26:22.266Z,994
2019-03-20T03:27:23.514Z,994.1
2019-03-20T03:28:24.776Z,994.2
2019-03-20T03:29:26.053Z,994.2
2019-03-20T03:30:27.321Z,994.3
2019-03-20T03:31:28.677Z,994.2
2019-03-20T03:32:30.014Z,994.2
2019-03-20T03:33:31.393Z,994.3
2019-03-20T03:34:32.684Z,994.2
2019-03-20T03:35:35.234Z,994.3
2019-03-20T03:36:36.518Z,994.2
2019-03-20T03:37:37.852Z,994.3
2019-03-20T03:38:39.211Z,994.2
2019-03-20T03:39:40.446Z,994.2
2019-03-20T03:40:41.728Z,994.2
2019-03-20T03:41:45.327Z,994.2
2019-03-20T03:42:47.267Z,994.3
2019-03-20T03:43:49.555Z,994.2
2019-03-20T03:44:50.811Z,994.3
2019-03-20T03:45:53.321Z,994.2
2019-03-20T03:46:54.648Z,994.3
2019-03-20T03:47:57.091Z,994.3
2019-03-20T03:48:58.354Z,994.4
2019-03-20T03:50:06.848Z,994.3
2019-03-20T03:51:08.135Z,994.3
2019-03-20T03:52:09.428Z,994.3
2019-03-20T03:53:10.918Z,994.3
2019-03-20T03:54:12.160Z,994.3
2019-03-20T03:55:17.774Z,994.3
2019-03-20T03:56:20.057Z,994.3
2019-03-20T03:57:21.353Z,994.2
2019-03-20T03:58:23.921Z,994.2
2019-03-20T03:59:25.224Z,994.3
2019-03-20T04:00:27.624Z,994.2
2019-03-20T04:01:28.888Z,994.3
2019-03-20T04:02:30.451Z,994.3
2019-03-20T04:03:34.132Z,994.3
2019-03-20T04:04:35.396Z,994.4
2019-03-20T04:05:39.125Z,994.3
2019-03-20T04:06:41.578Z,994.3
2019-03-20T04:07:42.861Z,994.4
2019-03-20T04:08:46.476Z,994.3
2019-03-20T04:09:47.759Z,994.3
2019-03-20T04:10:49.020Z,994.2
2019-03-20T04:11:50.278Z,994
2019-03-20T04:12:52.818Z,994.2
2019-03-20T04:13:54.062Z,994.2
2019-03-20T04:14:55.328Z,994.2
2019-03-20T04:15:59.350Z,994.2
2019-03-20T04:17:00.629Z,994.2
2019-03-20T04:18:01.941Z,994.2
2019-03-20T04:19:03.181Z,994.2
2019-03-20T04:20:04.813Z,994.2
2019-03-20T04:21:06.070Z,994.2
2019-03-20T04:22:07.392Z,994.2
2019-03-20T04:23:08.677Z,994.3
2019-03-20T04:24:09.937Z,994.3
2019-03-20T04:25:11.206Z,994.3
2019-03-20T04:26:12.481Z,994.3
2019-03-20T04:27:13.719Z,994.3
2019-03-20T04:28:14.996Z,994.3
2019-03-20T04:29:16.318Z,994.3
2019-03-20T04:30:17.597Z,994.4
2019-03-20T04:31:18.870Z,994.4
2019-03-20T04:32:20.134Z,994.4
2019-03-20T04:33:21.477Z,994.3
2019-03-20T04:34:22.748Z,994.4
2019-03-20T04:35:24.016Z,994.3
2019-03-20T04:36:25.255Z,994.3
2019-03-20T04:37:26.531Z,994.3
2019-03-20T04:38:27.823Z,994.4
2019-03-20T04:39:29.088Z,994.4
2019-03-20T04:40:30.372Z,994.3
2019-03-20T04:41:31.632Z,994.4
2019-03-20T04:42:32.896Z,994.4
2019-03-20T04:43:36.562Z,994.4
2019-03-20T04:44:37.848Z,994.4
2019-03-20T04:45:39.397Z,994.4
2019-03-20T04:46:40.654Z,994.4
2019-03-20T04:47:41.916Z,994.4
2019-03-20T04:48:43.237Z,994.4
2019-03-20T04:49:44.513Z,994.2
2019-03-20T04:50:45.746Z,994.4
2019-03-20T04:51:47.019Z,994.4
2019-03-20T04:52:48.283Z,994.3
2019-03-20T04:53:49.572Z,994.4
2019-03-20T04:54:50.816Z,994.3
2019-03-20T04:55:52.079Z,994.3
2019-03-20T04:56:53.340Z,994.4
2019-03-20T04:57:54.815Z,994.4
2019-03-20T04:58:56.108Z,994.4
2019-03-20T04:59:57.356Z,994.5
2019-03-20T05:00:58.608Z,994.4
2019-03-20T05:01:59.889Z,994.4
2019-03-20T05:03:02.236Z,994.4
2019-03-20T05:04:03.568Z,994.4
2019-03-20T05:05:04.863Z,994.3
2019-03-20T05:06:06.124Z,994.4
2019-03-20T05:07:07.403Z,994.4
2019-03-20T05:08:08.651Z,994.5
2019-03-20T05:09:09.960Z,994.5
2019-03-20T05:10:11.211Z,994.5
2019-03-20T05:11:12.477Z,994.5
2019-03-20T05:12:13.725Z,994.5
2019-03-20T05:13:14.980Z,994.5
2019-03-20T05:14:16.260Z,994.5
2019-03-20T05:15:17.545Z,994.4
2019-03-20T05:16:18.799Z,994.5
2019-03-20T05:17:20.066Z,994.4
2019-03-20T05:18:21.409Z,994.5
2019-03-20T05:19:22.725Z,994.5
2019-03-20T05:20:24.003Z,994.5
2019-03-20T05:21:25.297Z,994.4
2019-03-20T05:22:27.365Z,994.5
2019-03-20T05:23:28.617Z,994.4
2019-03-20T05:24:29.903Z,994.6
2019-03-20T05:25:31.153Z,994.5
2019-03-20T05:26:32.407Z,994.6
2019-03-20T05:27:33.663Z,994.6
2019-03-20T05:28:34.965Z,994.5
2019-03-20T05:29:36.259Z,994.4
2019-03-20T05:30:37.509Z,994.5
2019-03-20T05:31:38.823Z,994.6
2019-03-20T05:32:40.079Z,994.5
2019-03-20T05:33:41.335Z,994.6
2019-03-20T05:34:42.661Z,994.5
2019-03-20T05:35:43.905Z,994.6
2019-03-20T05:36:45.173Z,994.6
2019-03-20T05:37:46.445Z,994.6
2019-03-20T05:38:47.719Z,994.6
2019-03-20T05:39:49.007Z,994.6
2019-03-20T05:40:50.282Z,994.6
2019-03-20T05:41:52.835Z,994.6
2019-03-20T05:42:54.095Z,994.6
2019-03-20T05:43:55.361Z,994.6
2019-03-20T05:44:56.709Z,994.6
2019-03-20T05:45:59.457Z,994.7
2019-03-20T05:47:01.971Z,994.6
2019-03-20T05:48:03.242Z,994.7
2019-03-20T05:49:04.479Z,994.7
2019-03-20T05:50:05.789Z,994.6
2019-03-20T05:51:07.117Z,994.7
2019-03-20T05:52:08.369Z,994.8
2019-03-20T05:53:09.597Z,994.7
2019-03-20T05:54:10.857Z,994.9
2019-03-20T05:55:12.489Z,994.8
2019-03-20T05:56:13.766Z,994.7
2019-03-20T05:57:15.040Z,994.8
2019-03-20T05:58:16.332Z,994.8
2019-03-20T05:59:21.935Z,994.8
2019-03-20T06:00:24.443Z,994.9
2019-03-20T06:01:25.727Z,994.9
2019-03-20T06:02:26.983Z,994.9
2019-03-20T06:03:28.227Z,994.9
2019-03-20T06:04:29.475Z,995
2019-03-20T06:05:30.785Z,995
2019-03-20T06:06:34.236Z,995.1
2019-03-20T06:07:38.864Z,995
2019-03-20T06:08:40.149Z,995
2019-03-20T06:09:41.413Z,995
2019-03-20T06:10:42.693Z,995.1
2019-03-20T06:11:44.216Z,995
2019-03-20T06:12:46.725Z,995
2019-03-20T06:13:49.239Z,995.1
2019-03-20T06:14:50.501Z,995.1
2019-03-20T06:15:51.806Z,995
2019-03-20T06:16:53.063Z,995
2019-03-20T06:17:54.479Z,995.1
2019-03-20T06:18:55.741Z,995
2019-03-20T06:19:57.011Z,995.1
2019-03-20T06:20:58.385Z,995.1
2019-03-20T06:21:59.632Z,995.1
2019-03-20T06:23:03.217Z,995.1
2019-03-20T06:24:04.491Z,995.1
2019-03-20T06:25:05.759Z,995.2
2019-03-20T06:26:07.626Z,995.1
2019-03-20T06:27:08.873Z,995.2
2019-03-20T06:28:10.132Z,995.2
2019-03-20T06:29:11.391Z,995.3
2019-03-20T06:30:12.989Z,995.2
2019-03-20T06:31:14.313Z,995.2
2019-03-20T06:32:15.601Z,995.2
2019-03-20T06:33:17.217Z,995.2
2019-03-20T06:34:19.505Z,995.3
2019-03-20T06:35:22.977Z,995.3
2019-03-20T06:36:24.296Z,995.3
2019-03-20T06:37:33.376Z,995.3
2019-03-20T06:38:34.637Z,995.3
2019-03-20T06:39:38.196Z,995.3
2019-03-20T06:40:39.460Z,995.3
2019-03-20T06:41:40.750Z,995.3
2019-03-20T06:42:42.268Z,995.3
2019-03-20T06:43:43.530Z,995.4
2019-03-20T06:44:45.128Z,995.4
2019-03-20T06:45:46.374Z,995.3
2019-03-20T06:46:50.198Z,995.3
2019-03-20T06:47:51.501Z,995.4
2019-03-20T06:48:52.761Z,995.4
2019-03-20T06:49:54.638Z,995.4
2019-03-20T06:50:55.882Z,995.4
2019-03-20T06:51:59.280Z,995.4
2019-03-20T06:53:00.589Z,995.4
2019-03-20T06:54:01.846Z,995.4
2019-03-20T06:55:03.111Z,995.4
2019-03-20T06:56:04.434Z,995.4
2019-03-20T06:57:05.824Z,995.4
2019-03-20T06:58:07.120Z,995.3
2019-03-20T06:59:08.374Z,995.5
2019-03-20T07:00:09.726Z,995.5
2019-03-20T07:01:11.336Z,995.5
2019-03-20T07:02:12.635Z,995.5
2019-03-20T07:03:13.912Z,995.4
2019-03-20T07:04:15.198Z,995.5
2019-03-20T07:05:16.470Z,995.5
2019-03-20T07:06:18.788Z,995.5
2019-03-20T07:07:20.099Z,995.5
2019-03-20T07:08:21.366Z,995.5
2019-03-20T07:09:22.702Z,995.5
2019-03-20T07:10:24.230Z,995.5
2019-03-20T07:11:25.500Z,995.5
2019-03-20T07:12:26.772Z,995.6
2019-03-20T07:13:30.362Z,995.5
2019-03-20T07:14:31.676Z,995.5
2019-03-20T07:15:33.274Z,995.5
2019-03-20T07:16:34.542Z,995.6
2019-03-20T07:17:35.837Z,995.6
2019-03-20T07:18:37.096Z,995.6
2019-03-20T07:19:38.397Z,995.5
2019-03-20T07:20:39.652Z,995.6
2019-03-20T07:21:40.998Z,995.5
2019-03-20T07:22:42.680Z,995.6
2019-03-20T07:23:43.968Z,995.5
2019-03-20T07:24:45.224Z,995.6
2019-03-20T07:25:46.488Z,995.6
2019-03-20T07:26:49.884Z,995.6
2019-03-20T07:27:51.166Z,995.6
2019-03-20T07:28:52.431Z,995.7
2019-03-20T07:29:53.682Z,995.6
2019-03-20T07:30:56.900Z,995.7
2019-03-20T07:31:58.152Z,995.7
2019-03-20T07:32:59.448Z,995.7
2019-03-20T07:34:00.720Z,995.7
2019-03-20T07:35:01.990Z,995.7
2019-03-20T07:36:03.241Z,995.7
2019-03-20T07:37:04.505Z,995.7
2019-03-20T07:38:06.092Z,995.7
2019-03-20T07:39:07.366Z,995.7
2019-03-20T07:40:08.645Z,995.8
2019-03-20T07:41:09.900Z,995.8
2019-03-20T07:42:11.213Z,995.9
2019-03-20T07:43:12.530Z,995.8
2019-03-20T07:44:13.802Z,995.7
2019-03-20T07:45:16.040Z,995.9
2019-03-20T07:46:19.482Z,995.9
2019-03-20T07:47:20.766Z,995.8
2019-03-20T07:48:23.458Z,995.9
2019-03-20T07:49:24.742Z,995.8
2019-03-20T07:50:27.048Z,995.8
2019-03-20T07:51:28.676Z,995.9
2019-03-20T07:52:30.278Z,995.9
2019-03-20T07:53:31.606Z,995.9
2019-03-20T07:54:32.904Z,995.9
2019-03-20T07:55:34.196Z,995.8
2019-03-20T07:56:35.476Z,995.9
2019-03-20T07:57:36.723Z,995.8
2019-03-20T07:58:38.022Z,995.8
2019-03-20T07:59:39.318Z,995.9
2019-03-20T08:00:40.604Z,995.8
2019-03-20T08:01:41.884Z,995.9
2019-03-20T08:02:45.563Z,995.9
2019-03-20T08:03:49.416Z,995.9
2019-03-20T08:04:50.681Z,995.9
2019-03-20T08:05:54.267Z,995.9
2019-03-20T08:06:55.508Z,996
2019-03-20T08:08:07.854Z,996
2019-03-20T08:09:09.601Z,996
2019-03-20T08:10:10.864Z,996
2019-03-20T08:11:12.168Z,996.1
2019-03-20T08:12:13.728Z,996.1
2019-03-20T08:13:14.990Z,996
2019-03-20T08:14:16.285Z,996
2019-03-20T08:15:17.811Z,996
2019-03-20T08:16:19.074Z,996
2019-03-20T08:17:20.338Z,996.1
2019-03-20T08:18:21.593Z,996.1
2019-03-20T08:19:22.914Z,996.1
2019-03-20T08:20:24.196Z,996.1
2019-03-20T08:21:25.461Z,996.2
2019-03-20T08:22:26.721Z,996.2
2019-03-20T08:23:28.588Z,996.2
2019-03-20T08:24:29.932Z,996.2
2019-03-20T08:25:33.246Z,996.2
2019-03-20T08:26:34.508Z,996.2
2019-03-20T08:27:35.811Z,996.3
2019-03-20T08:28:38.233Z,996.2
2019-03-20T08:29:39.534Z,996.3
2019-03-20T08:30:41.283Z,996.2
2019-03-20T08:31:43.191Z,996.3
2019-03-20T08:32:44.608Z,996.3
2019-03-20T08:33:45.937Z,996.4
2019-03-20T08:34:47.231Z,996.4
2019-03-20T08:35:48.478Z,996.4
2019-03-20T08:36:49.735Z,996.4
2019-03-20T08:37:51.856Z,996.4
2019-03-20T08:38:53.338Z,996.4
2019-03-20T08:39:54.919Z,996.4
2019-03-20T08:40:57.210Z,996.5
2019-03-20T08:41:58.472Z,996.5
2019-03-20T08:42:59.751Z,996.5
2019-03-20T08:44:01.239Z,996.5
2019-03-20T08:45:02.813Z,996.5
2019-03-20T08:46:04.126Z,996.6
2019-03-20T08:47:05.452Z,996.6
2019-03-20T08:48:09.336Z,996.6
2019-03-20T08:49:10.829Z,996.7
2019-03-20T08:50:12.142Z,996.7
2019-03-20T08:51:16.348Z,996.7
2019-03-20T08:52:17.639Z,996.8
2019-03-20T08:53:18.903Z,996.7
2019-03-20T08:54:22.526Z,996.8
2019-03-20T08:55:23.819Z,996.7
2019-03-20T08:56:25.092Z,996.7
2019-03-20T08:57:26.328Z,996.8
2019-03-20T08:58:27.657Z,996.8
2019-03-20T08:59:28.919Z,996.8
2019-03-20T09:00:30.227Z,996.8
2019-03-20T09:01:31.513Z,996.8
2019-03-20T09:02:32.767Z,996.9
2019-03-20T09:03:34.259Z,996.8
2019-03-20T09:04:36.847Z,996.8
2019-03-20T09:05:38.153Z,996.9
2019-03-20T09:06:39.407Z,996.9
2019-03-20T09:07:48.144Z,997
2019-03-20T09:08:49.403Z,997
2019-03-20T09:09:51.955Z,997
2019-03-20T09:10:53.540Z,997
2019-03-20T09:11:54.795Z,997
2019-03-20T09:12:56.050Z,997
2019-03-20T09:13:58.582Z,997
2019-03-20T09:14:59.863Z,997
2019-03-20T09:16:01.149Z,996.9
2019-03-20T09:17:03.558Z,996.9
2019-03-20T09:18:05.229Z,996.9
2019-03-20T09:19:06.489Z,997
2019-03-20T09:20:08.237Z,996.9
2019-03-20T09:21:09.529Z,997
2019-03-20T09:22:10.803Z,996.9
2019-03-20T09:23:12.050Z,996.8
2019-03-20T09:24:14.401Z,996.8
2019-03-20T09:25:15.685Z,996.8
2019-03-20T09:26:19.447Z,996.7
2019-03-20T09:27:20.748Z,996.7
2019-03-20T09:28:21.995Z,996.7
2019-03-20T09:29:23.263Z,996.6
2019-03-20T09:30:24.539Z,996.7
2019-03-20T09:31:25.861Z,996.7
2019-03-20T09:32:34.233Z,996.6
2019-03-20T09:33:39.261Z,996.7
2019-03-20T09:34:40.503Z,996.7
2019-03-20T09:35:41.770Z,996.6
2019-03-20T09:36:44.426Z,996.6
2019-03-20T09:37:52.877Z,996.6
2019-03-20T09:38:57.577Z,996.7
2019-03-20T09:39:58.860Z,996.7
2019-03-20T09:41:08.468Z,996.7
2019-03-20T09:42:10.022Z,996.7
2019-03-20T09:43:11.290Z,996.7
2019-03-20T09:44:12.659Z,996.7
2019-03-20T09:45:14.830Z,996.6
2019-03-20T09:46:16.081Z,996.6
2019-03-20T09:47:17.387Z,996.6
2019-03-20T09:48:18.921Z,996.7
2019-03-20T09:49:20.369Z,996.6
2019-03-20T09:50:21.795Z,996.6
2019-03-20T09:51:25.391Z,996.6
2019-03-20T09:52:26.701Z,996.6
2019-03-20T09:53:28.239Z,996.7
2019-03-20T09:54:29.528Z,996.6
2019-03-20T09:55:30.813Z,996.6
2019-03-20T09:56:32.081Z,996.7
2019-03-20T09:57:34.542Z,996.7
2019-03-20T09:58:35.829Z,996.6
2019-03-20T09:59:40.933Z,996.7
2019-03-20T10:00:42.491Z,996.6
2019-03-20T10:01:43.787Z,996.7
2019-03-20T10:02:45.084Z,996.7
2019-03-20T10:03:46.363Z,996.7
2019-03-20T10:04:49.969Z,996.6
2019-03-20T10:05:51.231Z,996.6
2019-03-20T10:06:52.475Z,996.6
2019-03-20T10:07:53.957Z,996.7
2019-03-20T10:09:07.101Z,996.6
2019-03-20T10:10:09.534Z,996.6
2019-03-20T10:11:10.811Z,996.5
2019-03-20T10:12:12.069Z,996.5
2019-03-20T10:13:14.502Z,996.6
2019-03-20T10:14:15.757Z,996.6
2019-03-20T10:15:17.063Z,996.6
2019-03-20T10:16:18.632Z,996.6
2019-03-20T10:17:19.910Z,996.5
2019-03-20T10:18:21.220Z,996.6
2019-03-20T10:19:22.497Z,996.5
2019-03-20T10:20:23.790Z,996.6
2019-03-20T10:21:25.361Z,996.5
2019-03-20T10:22:26.655Z,996.4
2019-03-20T10:23:27.949Z,996.6
2019-03-20T10:24:31.311Z,996.6
2019-03-20T10:25:32.632Z,996.5
2019-03-20T10:26:34.255Z,996.6
2019-03-20T10:27:35.530Z,996.6
2019-03-20T10:28:38.684Z,996.6
2019-03-20T10:29:40.248Z,996.5
2019-03-20T10:30:41.524Z,996.5
2019-03-20T10:31:42.779Z,996.5
2019-03-20T10:32:45.061Z,996.5
2019-03-20T10:33:46.629Z,996.5
2019-03-20T10:34:50.376Z,996.5
2019-03-20T10:35:51.641Z,996.6
2019-03-20T10:36:52.898Z,996.6
2019-03-20T10:37:54.165Z,996.6
2019-03-20T10:39:07.007Z,996.6
2019-03-20T10:40:08.497Z,996.6
2019-03-20T10:41:09.750Z,996.5
2019-03-20T10:42:11.010Z,996.5
2019-03-20T10:43:12.284Z,996.5
2019-03-20T10:44:15.219Z,996.5
2019-03-20T10:45:16.883Z,996.5
2019-03-20T10:46:19.252Z,996.5
2019-03-20T10:47:20.529Z,996.2
2019-03-20T10:48:21.840Z,996.4
2019-03-20T10:49:23.139Z,996.5
2019-03-20T10:50:24.397Z,996.5
2019-03-20T10:51:25.678Z,996.5
2019-03-20T10:52:29.265Z,996.5
2019-03-20T10:53:30.768Z,996.5
2019-03-20T10:54:32.064Z,996.5
2019-03-20T10:55:34.146Z,996.4
2019-03-20T10:56:35.398Z,996.4
2019-03-20T10:57:36.882Z,996.4
2019-03-20T10:58:38.630Z,996.5
2019-03-20T10:59:40.252Z,996.4
2019-03-20T11:00:41.952Z,996.4
2019-03-20T11:01:43.827Z,996.2
2019-03-20T11:02:45.090Z,996.4
2019-03-20T11:03:46.372Z,996.4
2019-03-20T11:04:50.119Z,996.4
2019-03-20T11:05:52.524Z,996.4
2019-03-20T11:06:53.780Z,996.4
2019-03-20T11:07:58.356Z,996.4
2019-03-20T11:09:00.903Z,996.5
2019-03-20T11:10:02.268Z,996.5
2019-03-20T11:11:03.512Z,996.5
2019-03-20T11:12:04.792Z,996.4
2019-03-20T11:13:06.122Z,996.5
2019-03-20T11:14:07.760Z,996.5
2019-03-20T11:15:09.292Z,996.6
2019-03-20T11:16:10.549Z,996.5
2019-03-20T11:17:14.340Z,996.4
2019-03-20T11:18:16.930Z,996.4
2019-03-20T11:19:28.792Z,996.5
2019-03-20T11:20:30.918Z,996.5
2019-03-20T11:21:32.189Z,996.5
2019-03-20T11:22:33.502Z,996.4
2019-03-20T11:23:34.781Z,996.5
2019-03-20T11:24:36.048Z,996.4
2019-03-20T11:25:38.130Z,996.5
2019-03-20T11:26:39.422Z,996.4
2019-03-20T11:27:40.813Z,996.4
2019-03-20T11:28:44.442Z,996.5
2019-03-20T11:29:53.616Z,996.4
2019-03-20T11:30:55.933Z,996.4
2019-03-20T11:31:57.358Z,996.4
2019-03-20T11:32:58.671Z,996.5
2019-03-20T11:34:04.022Z,996.5
2019-03-20T11:35:07.625Z,996.5
2019-03-20T11:36:08.972Z,996.4
2019-03-20T11:37:10.282Z,996.5
2019-03-20T11:38:15.890Z,996.5
2019-03-20T11:39:28.875Z,996.5
2019-03-20T11:40:40.680Z,996.5
2019-03-20T11:41:41.998Z,996.5
2019-03-20T11:42:45.500Z,996.5
2019-03-20T11:43:51.705Z,996.6
2019-03-20T11:44:53.028Z,996.4
2019-03-20T11:45:54.312Z,996.5
2019-03-20T11:46:56.552Z,996.5
2019-03-20T11:47:59.026Z,996.5
2019-03-20T11:49:01.624Z,996.6
2019-03-20T11:50:03.109Z,996.5
2019-03-20T11:51:04.376Z,996.5
2019-03-20T11:52:07.226Z,996.4
2019-03-20T11:53:08.845Z,996.5
2019-03-20T11:54:10.125Z,996.4
2019-03-20T11:55:11.550Z,996.5
2019-03-20T11:56:12.932Z,996.4
2019-03-20T11:57:16.558Z,996.4
2019-03-20T11:58:17.809Z,996.4
2019-03-20T11:59:19.546Z,996.3
2019-03-20T12:00:23.685Z,996.3
2019-03-20T12:01:25.193Z,996.3
2019-03-20T12:02:33.651Z,996.4
2019-03-20T12:03:35.055Z,996.4
2019-03-20T12:04:36.492Z,996.3
2019-03-20T12:05:38.967Z,996.4
2019-03-20T12:06:40.242Z,996.3
2019-03-20T12:07:41.526Z,996.2
2019-03-20T12:08:42.836Z,996.3
2019-03-20T12:09:47.388Z,996.3
2019-03-20T12:10:48.659Z,996.4
2019-03-20T12:11:55.302Z,996.3
2019-03-20T12:12:56.767Z,996.3
2019-03-20T12:13:58.292Z,996.3
2019-03-20T12:15:00.856Z,996.2
2019-03-20T12:16:02.142Z,996.3
2019-03-20T12:17:03.532Z,996.3
2019-03-20T12:18:04.946Z,996.1
2019-03-20T12:19:07.276Z,996.1
2019-03-20T12:20:09.561Z,996
2019-03-20T12:21:10.846Z,996.1
2019-03-20T12:22:12.121Z,996.2
2019-03-20T12:23:13.445Z,996.2
2019-03-20T12:24:15.328Z,996.2
2019-03-20T12:25:16.618Z,996.2
2019-03-20T12:26:18.142Z,996.2
2019-03-20T12:27:19.930Z,996.2
2019-03-20T12:28:21.310Z,996.2
2019-03-20T12:29:25.285Z,996.1
2019-03-20T12:30:28.056Z,996.1
2019-03-20T12:31:29.549Z,996.1
2019-03-20T12:32:30.825Z,996.2
2019-03-20T12:33:38.649Z,996.1
2019-03-20T12:34:40.170Z,996.2
2019-03-20T12:35:41.420Z,996.1
2019-03-20T12:36:42.694Z,996.2
2019-03-20T12:37:43.980Z,996.2
2019-03-20T12:38:45.664Z,996.2
2019-03-20T12:39:54.074Z,996.1
2019-03-20T12:40:55.720Z,996.1
2019-03-20T12:41:58.952Z,996.1
2019-03-20T12:43:03.094Z,996.1
2019-03-20T12:44:04.432Z,996.1
2019-03-20T12:45:05.701Z,996
2019-03-20T12:46:07.971Z,996.1
2019-03-20T12:47:09.485Z,996
2019-03-20T12:48:10.752Z,996
2019-03-20T12:49:12.135Z,996.1
2019-03-20T12:50:13.400Z,996.1
2019-03-20T12:51:14.679Z,996
2019-03-20T12:52:16.282Z,996.1
2019-03-20T12:53:17.617Z,996.1
2019-03-20T12:54:18.928Z,996
2019-03-20T12:55:21.613Z,996
2019-03-20T12:56:23.657Z,996
2019-03-20T12:57:25.112Z,995.9
2019-03-20T12:58:26.412Z,996
2019-03-20T12:59:27.706Z,996
2019-03-20T13:00:29.317Z,995.9
2019-03-20T13:01:30.780Z,995.9
2019-03-20T13:02:35.152Z,996
2019-03-20T13:03:36.661Z,996.1
2019-03-20T13:04:38.142Z,996
2019-03-20T13:05:39.667Z,996
2019-03-20T13:06:41.310Z,995.9
2019-03-20T13:07:42.593Z,996
2019-03-20T13:08:43.866Z,995.9
2019-03-20T13:09:46.523Z,995.9
2019-03-20T13:10:47.828Z,996
2019-03-20T13:11:52.161Z,996
2019-03-20T13:12:53.435Z,996
2019-03-20T13:13:55.865Z,996
2019-03-20T13:14:59.488Z,996
2019-03-20T13:16:03.379Z,996
2019-03-20T13:17:04.967Z,995.9
2019-03-20T13:18:12.486Z,995.9
2019-03-20T13:19:13.829Z,995.9
2019-03-20T13:20:16.181Z,995.9
2019-03-20T13:21:17.463Z,995.9
2019-03-20T13:22:23.561Z,996
2019-03-20T13:23:25.109Z,996
2019-03-20T13:24:26.516Z,996